createdAt,value
2023-03-12T00:00:01.583Z,10
2023-03-12T00:05:02.077Z,7
2023-03-12T00:10:01.490Z,8
2023-03-12T00:15:01.873Z,8
2023-03-12T00:20:01.345Z,9
2023-03-12T00:25:01.719Z,9
2023-03-12T00:30:02.088Z,9
2023-03-12T00:35:01.464Z,8
2023-03-12T00:40:01.887Z,9
2023-03-12T00:45:02.265Z,10
2023-03-12T00:50:02.047Z,8
2023-03-12T00:55:01.626Z,9
2023-03-12T01:00:02.115Z,11
2023-03-12T01:05:01.469Z,10
2023-03-12T01:10:01.885Z,8
2023-03-12T01:15:02.692Z,5
2023-03-12T01:20:02.313Z,7
2023-03-12T01:25:01.801Z,8
2023-03-12T01:30:02.310Z,9
2023-03-12T01:35:01.678Z,10
2023-03-12T01:40:02.524Z,10
2023-03-12T01:45:02.015Z,10
2023-03-12T01:50:01.436Z,10
2023-03-12T01:55:01.800Z,10
2023-03-12T02:00:02.375Z,9
2023-03-12T02:05:02.179Z,10
2023-03-12T02:10:01.595Z,9
2023-03-12T02:15:01.954Z,9
2023-03-12T02:20:01.402Z,7
2023-03-12T02:25:01.775Z,9
2023-03-12T02:30:02.573Z,9
2023-03-12T02:35:02.077Z,9
2023-03-12T02:40:01.485Z,5
2023-03-12T02:45:01.871Z,9
2023-03-12T02:50:02.234Z,9
2023-03-12T02:55:01.583Z,8
2023-03-12T03:00:01.986Z,7
2023-03-12T03:05:01.338Z,7
2023-03-12T03:10:01.740Z,12
2023-03-12T03:15:02.103Z,10
2023-03-12T03:20:01.560Z,9
2023-03-12T03:25:01.958Z,9
2023-03-12T03:30:01.748Z,9
2023-03-12T03:35:02.121Z,7
2023-03-12T03:40:01.653Z,7
2023-03-12T03:45:02.043Z,8
2023-03-12T03:50:01.536Z,5
2023-03-12T03:55:02.336Z,8
2023-03-12T04:00:03.821Z,5
2023-03-12T04:05:01.810Z,7
2023-03-12T04:10:02.208Z,7
2023-03-12T04:15:01.749Z,5
2023-03-12T04:20:02.198Z,5
2023-03-12T04:25:01.992Z,7
2023-03-12T04:30:01.390Z,5
2023-03-12T04:35:01.755Z,5
2023-03-12T04:40:02.176Z,5
2023-03-12T04:45:01.539Z,5
2023-03-12T04:50:01.904Z,5
2023-03-12T04:55:02.690Z,5
2023-03-12T05:00:02.208Z,4
2023-03-12T05:05:01.566Z,7
2023-03-12T05:10:01.967Z,5
2023-03-12T05:15:01.504Z,7
2023-03-12T05:20:01.912Z,7
2023-03-12T05:25:02.286Z,5
2023-03-12T05:30:01.945Z,6
2023-03-12T05:35:02.345Z,5
2023-03-12T05:40:01.737Z,5
2023-03-12T05:45:02.236Z,4
2023-03-12T05:50:01.520Z,6
2023-03-12T05:55:02.018Z,4
2023-03-12T06:00:01.477Z,4
2023-03-12T06:05:01.941Z,5
2023-03-12T06:10:01.352Z,5
2023-03-12T06:15:01.727Z,8
2023-03-12T06:20:02.274Z,7
2023-03-12T06:25:01.623Z,5
2023-03-12T06:30:02.438Z,7
2023-03-12T06:35:01.921Z,7
2023-03-12T06:40:01.327Z,8
2023-03-12T06:45:01.697Z,7
2023-03-12T06:50:02.072Z,7
2023-03-12T06:55:01.538Z,9
2023-03-12T07:00:02.046Z,7
2023-03-12T07:05:01.626Z,8
2023-03-12T07:10:02.243Z,7
2023-03-12T07:15:01.674Z,11
2023-03-12T07:20:02.538Z,8
2023-03-12T07:25:02.566Z,7
2023-03-12T07:30:02.391Z,7
2023-03-12T07:35:01.764Z,8
2023-03-12T07:40:02.629Z,8
2023-03-12T07:45:02.122Z,7
2023-03-12T07:50:01.765Z,9
2023-03-12T07:55:02.386Z,6
2023-03-12T08:00:02.052Z,8
2023-03-12T08:05:01.497Z,10
2023-03-12T08:10:02.036Z,14
2023-03-12T08:15:01.618Z,8
2023-03-12T08:20:02.185Z,10
2023-03-12T08:25:01.982Z,9
2023-03-12T08:30:01.351Z,12
2023-03-12T08:35:01.762Z,10
2023-03-12T08:40:02.158Z,12
2023-03-12T08:45:01.557Z,13
2023-03-12T08:50:02.044Z,10
2023-03-12T08:55:01.531Z,9
2023-03-12T09:00:02.037Z,9
2023-03-12T09:05:01.404Z,11
2023-03-12T09:10:01.816Z,9
2023-03-12T09:15:04.168Z,10
2023-03-12T09:20:02.158Z,8
2023-03-12T09:25:01.512Z,9
2023-03-12T09:30:01.987Z,8
2023-03-12T09:35:01.529Z,7
2023-03-12T09:40:01.954Z,8
2023-03-12T09:45:01.484Z,9
2023-03-12T09:50:01.897Z,7
2023-03-12T09:55:01.808Z,8
2023-03-12T10:00:02.191Z,5
2023-03-12T10:05:01.602Z,8
2023-03-12T10:10:02.200Z,9
2023-03-12T10:15:01.893Z,7
2023-03-12T10:20:01.818Z,8
2023-03-12T10:25:02.321Z,7
2023-03-12T10:30:01.701Z,4
2023-03-12T10:35:02.196Z,7
2023-03-12T10:40:02.048Z,6
2023-03-12T10:45:01.442Z,4
2023-03-12T10:50:02.258Z,5
2023-03-12T10:55:01.721Z,7
2023-03-12T11:00:02.684Z,7
2023-03-12T11:05:02.193Z,4
2023-03-12T11:10:01.760Z,5
2023-03-12T11:15:02.570Z,4
2023-03-12T11:20:02.094Z,3
2023-03-12T11:25:01.491Z,7
2023-03-12T11:30:02.043Z,6
2023-03-12T11:35:01.545Z,5
2023-03-12T11:40:02.079Z,6
2023-03-12T11:45:01.462Z,6
2023-03-12T11:50:01.978Z,5
2023-03-12T11:55:01.518Z,7
2023-03-12T12:00:01.947Z,6
2023-03-12T12:05:01.351Z,7
2023-03-12T12:10:01.877Z,7
2023-03-12T12:15:02.279Z,4
2023-03-12T12:20:01.738Z,6
2023-03-12T12:25:02.114Z,7
2023-03-12T12:30:01.565Z,6
2023-03-12T12:35:02.347Z,4
2023-03-12T12:40:01.780Z,5
2023-03-12T12:45:02.634Z,8
2023-03-12T12:50:02.423Z,10
2023-03-12T12:55:01.905Z,7
2023-03-12T13:00:02.310Z,8
2023-03-12T13:05:02.099Z,7
2023-03-12T13:10:01.935Z,9
2023-03-12T13:15:02.320Z,7
2023-03-12T13:20:02.397Z,8
2023-03-12T13:25:01.839Z,8
2023-03-12T13:30:02.211Z,5
2023-03-12T13:35:01.802Z,7
2023-03-12T13:40:02.729Z,6
2023-03-12T13:45:02.113Z,3
2023-03-12T13:50:01.939Z,5
2023-03-12T13:55:02.314Z,5
2023-03-12T14:00:01.855Z,6
2023-03-12T14:05:02.390Z,5
2023-03-12T14:10:01.866Z,10
2023-03-12T14:15:02.680Z,7
2023-03-12T14:20:02.346Z,5
2023-03-12T14:25:01.752Z,5
2023-03-12T14:30:02.547Z,5
2023-03-12T14:35:01.918Z,4
2023-03-12T14:40:01.755Z,5
2023-03-12T14:45:02.149Z,4
2023-03-12T14:50:01.527Z,4
2023-03-12T14:55:02.065Z,8
2023-03-12T15:00:01.461Z,3
2023-03-12T15:05:01.997Z,3
2023-03-12T15:10:01.596Z,4
2023-03-12T15:15:02.001Z,3
2023-03-12T15:20:01.459Z,4
2023-03-12T15:25:02.255Z,5
2023-03-12T15:30:02.062Z,4
2023-03-12T15:35:01.614Z,7
2023-03-12T15:40:02.346Z,3
2023-03-12T15:45:01.724Z,2
2023-03-12T15:50:02.125Z,6
2023-03-12T15:55:01.645Z,4
2023-03-12T16:00:02.055Z,3
2023-03-12T16:05:01.647Z,3
2023-03-12T16:10:02.479Z,5
2023-03-12T16:15:02.002Z,5
2023-03-12T16:20:01.461Z,3
2023-03-12T16:25:02.248Z,4
2023-03-12T16:30:02.147Z,5
2023-03-12T16:35:01.521Z,5
2023-03-12T16:40:01.952Z,5
2023-03-12T16:45:01.472Z,5
2023-03-12T16:50:02.313Z,9
2023-03-12T16:55:01.825Z,5
2023-03-12T17:00:02.367Z,5
2023-03-12T17:05:02.066Z,9
2023-03-12T17:10:01.505Z,8
2023-03-12T17:15:02.314Z,5
2023-03-12T17:20:02.148Z,7
2023-03-12T17:25:01.939Z,11
2023-03-12T17:30:01.445Z,4
2023-03-12T17:35:02.245Z,9
2023-03-12T17:40:02.085Z,8
2023-03-12T17:45:01.480Z,7
2023-03-12T17:50:01.839Z,7
2023-03-12T17:55:02.385Z,5
2023-03-12T18:00:01.955Z,4
2023-03-12T18:05:01.586Z,8
2023-03-12T18:10:02.069Z,7
2023-03-12T18:15:01.610Z,5
2023-03-12T18:20:02.486Z,4
2023-03-12T18:25:01.859Z,4
2023-03-12T18:30:02.250Z,2
2023-03-12T18:35:02.069Z,3
2023-03-12T18:40:01.601Z,7
2023-03-12T18:45:01.984Z,5
2023-03-12T18:50:01.398Z,4
2023-03-12T18:55:01.830Z,4
2023-03-12T19:00:02.546Z,3
2023-03-12T19:05:02.383Z,3
2023-03-12T19:10:01.906Z,3
2023-03-12T19:15:01.370Z,2
2023-03-12T19:20:01.789Z,5
2023-03-12T19:25:02.353Z,2
2023-03-12T19:30:01.871Z,3
2023-03-12T19:35:02.393Z,4
2023-03-12T19:40:01.929Z,4
2023-03-12T19:45:01.376Z,2
2023-03-12T19:50:01.744Z,7
2023-03-12T19:55:05.169Z,4
2023-03-12T20:00:02.075Z,8
2023-03-12T20:05:01.608Z,4
2023-03-12T20:10:02.555Z,3
2023-03-12T20:15:01.924Z,2
2023-03-12T20:20:01.498Z,7
2023-03-12T20:25:02.287Z,4
2023-03-12T20:30:01.848Z,4
2023-03-12T20:35:02.664Z,5
2023-03-12T20:40:02.075Z,3
2023-03-12T20:45:01.473Z,3
2023-03-12T20:50:01.861Z,4
2023-03-12T20:55:01.365Z,4
2023-03-12T21:00:02.225Z,2
2023-03-12T21:05:01.626Z,3
2023-03-12T21:10:02.034Z,3
2023-03-12T21:15:01.445Z,4
2023-03-12T21:20:02.381Z,4
2023-03-12T21:25:01.769Z,2
2023-03-12T21:30:02.196Z,3
2023-03-12T21:35:01.715Z,3
2023-03-12T21:40:02.136Z,3
2023-03-12T21:45:01.539Z,4
2023-03-12T21:50:02.314Z,5
2023-03-12T21:55:01.676Z,4
2023-03-12T22:00:02.266Z,4
2023-03-12T22:05:02.430Z,8
2023-03-12T22:10:02.255Z,2
2023-03-12T22:15:01.773Z,2
2023-03-12T22:20:02.311Z,7
2023-03-12T22:25:01.818Z,5
2023-03-12T22:30:02.213Z,2
2023-03-12T22:35:01.720Z,3
2023-03-12T22:40:02.576Z,4
2023-03-12T22:45:02.372Z,7
2023-03-12T22:50:01.722Z,7
2023-03-12T22:55:02.095Z,7
2023-03-12T23:00:01.701Z,2
2023-03-12T23:05:02.540Z,5
2023-03-12T23:10:02.118Z,4
2023-03-12T23:15:01.552Z,7
2023-03-12T23:20:02.097Z,3
2023-03-12T23:25:01.456Z,7
2023-03-12T23:30:01.838Z,5
2023-03-12T23:35:02.344Z,7
2023-03-12T23:40:01.862Z,7
2023-03-12T23:45:02.261Z,6
2023-03-12T23:50:01.635Z,7
2023-03-12T23:55:02.021Z,7
